Presidente Castro Pinto Airport
SBJP : now visible

Airfield :











YOU CAN JOIN US ON...

 
LOGIN :

Register | Disclaimer

   EN    FR    IT 

 









Legend :    VFR   Marginal VFR   IFR   Intensive IFR   Very Intensive IFR
Visi :
Ceiling :
>= 8 km
>= 3000ft
5 to 8 km
1000 to 3000 ft
1500m to 5 km
500 to 1000 ft
800 to 1500m
200 to 500 ft
< 800m
< 200 ft
Symbols :   Thunderstorms  Fog  Heavy snow  Heavy precipitations  Wind > 20 kt






- Airport Elevation : 217 ft
- IATA code : JPA


SBJP - Presidente Castro Pinto

CURRENT METAR :
  • 050400Z 10007KT 9999 -RA SCT020 SCT070 23/23 Q1015

EXPIRED METARs :
  • 050300Z 20005KT 9999 SCT018 24/24 Q1015
  • 050200Z 20004KT 9999 FEW020 24/24 Q1016

TAF TAF SBJP
Valid from the 05 at 00:00 until the 06 at 00:00 UTC


042100Z 0500/0600 13011KT 9000 SCT030 TN24/0508Z TX30/0517Z
BECMG 0500/0502 16009KT SCT020
BECMG 0512/0514 SCT035 RMK PER
SBRE FIR / South America



MET'MAP, your aeronautical weather chart ! - Copyright ORBIFLY December 2007 - Disclaimer

ORBIFLY MET'MAP TEAM :

Programming & Development : Alexandra Zaïnal
Concept & original design : Baudouin d'Aumeries
Assistance for programming : Marc-Olivier Méhu
Technical & hardware support : Manuel Goepfert

Contact : metmap@orbifly.com




SOURCES & CREDITS :

   NOAA       Earth
Advisory